• Join FlightAware (Why Join?)
  • Login
  • US Flag 
 
02:22AM EST


 

Airport Tracker/Info


-or-


 

Live Flight TrackerFlight Track Log ✈ TSU191 ✈ 07-May-2013 ✈ KPTK - CYHM

Flight Track Log - Related Links

Times and Time Zones

All times are in EDT time to prevent confusion due to time zone crossing. See the TSU191 flight status page for this flight to view local times or setup timezone preferences in your user account.

Time Position Orientation Groundspeed Altitude Reporting Facility
EDT Latitude Longitude Course Direction KTS MPH feet Rate Location/Type
06:33AM 42.6672 -83.4097 88° East 256 295 1,600  Level Cleveland Center
06:34AM 42.6686 -83.3533 88° East 165 190 3,100 1,560 Climbing Cleveland Center
06:35AM 42.6556 -83.2906 106° East 184 212 4,800 1,560 Climbing Cleveland Center
06:36AM 42.6319 -83.2275 117° Southeast 191 220 6,300 1,140 Climbing Cleveland Center
06:37AM 42.6067 -83.1475 113° Southeast 226 260 7,100 1,140 Climbing Cleveland Center
06:38AM 42.5733 -83.0531 116° Southeast 239 275 8,900 1,200 Climbing Cleveland Center
06:39AM 42.5456 -82.9814 118° Southeast 239 275 9,800 900 Climbing Cleveland Center
06:40AM 42.5181 -82.8989 114° Southeast 234 269 10,800 600 Climbing Cleveland Center
06:41AM 42.4886 -82.8189 117° Southeast 234 269 11,100 60 Climbing Cleveland Center
06:42AM 42.4547 -82.7275 117° Southeast 247 284 11,000  Descending Cleveland Center
06:43AM 42.4211 -82.6364 117° Southeast 257 296 11,100  Climbing Cleveland Center
06:44AM 42.3953 -82.5653 116° Southeast 262 302 11,100 -120 Level Cleveland Center
06:45AM 42.3678 -82.4578 109° East 267 307 10,900  Descending Cleveland Center
06:46AM 42.3611 -82.3533 95° East 267 307 11,200 660 Climbing Cleveland Center
06:47AM 42.3606 -82.2550 90° East 272 313 12,300 960 Climbing Cleveland Center
06:48AM 42.3578 -82.1594 92° East 262 302 13,200 960 Climbing Cleveland Center
06:49AM 42.3506 -82.0581 95° East 255 293 14,300 900 Climbing Cleveland Center
06:50AM 42.3456 -81.9625 94° East 249 287 15,100 360 Climbing Cleveland Center
06:51AM 42.3383 -81.8611 95° East 261 300 15,100  Level Cleveland Center
06:52AM 42.3333 -81.7544 94° East 276 318 15,100 -60 Level Cleveland Center
06:53AM 42.3303 -81.6447 92° East 281 323 15,000  Descending Cleveland Center
06:54AM 42.3269 -81.5436 93° East 281 323 15,100  Climbing Cleveland Center
06:55AM 42.3736 -81.4544 55° Northeast 267 307 15,100 -60 Level Cleveland Center
06:56AM 42.4178 -81.3764 53° Northeast 280 322 15,000  Descending Cleveland Center
06:57AM 42.4706 -81.2842 52° Northeast 289 333 15,100  Climbing Cleveland Center
06:58AM 42.5189 -81.1972 53° Northeast 294 338 15,000 -60 Descending Cleveland Center
06:59AM 42.5714 -81.1161 49° Northeast 294 338 15,000  Level Cleveland Center
07:00AM 42.6239 -81.0289 51° Northeast 289 333 15,000  Level Cleveland Center
07:01AM 42.6722 -80.9389 54° Northeast 289 333 15,000  Level Cleveland Center
07:02AM 42.7206 -80.8403 56° Northeast 289 333 15,000 -660 Level Cleveland Center
07:04AM 42.7833 -80.6833 61° Northeast 310 357 13,400 -840 Descending Toronto Center
07:05AM 42.8500 -80.5833 48° Northeast 310 357 12,900 -540 Descending Toronto Center